Terminal Aerodrome Forecast
Issued by NWS Louisville, KY

Home | Current Version | Previous Version | Text Only | Print | Product List | Glossary On
Versions: 1 2 3 4 5 6 7 8 9 10 11 12 13 14
000
FTUS43 KLMK 241720
TAFLEX
TAF
KLEX 241720Z 2418/2518 02006KT 6SM -RA BR OVC012
      TEMPO 2418/2422 4SM -RA BR BKN007
     FM250000 34006KT 6SM BR VCSH OVC007
     FM250500 34008KT 6SM BR OVC005
     FM251500 33009KT P6SM OVC012=

USA.gov is the U.S. government's official web portal to all federal, state and local government web resources and services.